Time;durP1;ratioP1;P1;durP2;ratioP2;P2;SDS_P1;SDS_P2;PMS_P1;PMS_P2;Temp;Humidity;BMP_temperature;BMP_pressure;BME280_temperature;BME280_humidity;BME280_pressure;Samples;Min_cycle;Max_cycle;Signal;HPM_P1;HPM_P2
2021/07/29 00:00:11;;;;;;;64.80;31.27;;;768.40;1817.60;;;;;;4959899;28;20034;-79
2021/07/29 00:02:37;;;;;;;57.60;27.15;;;768.40;1792.00;;;;;;4959890;28;20023;-79
2021/07/29 00:05:02;;;;;;;45.40;23.88;;;768.40;1792.00;;;;;;4977414;28;20031;-81
2021/07/29 00:07:34;;;;;;;41.97;19.33;;;768.40;1792.00;;;;;;4959737;28;20500;-79
2021/07/29 00:10:00;;;;;;;31.88;15.73;;;768.40;1766.40;;;;;;4977182;28;20034;-78
2021/07/29 00:12:26;;;;;;;31.45;14.80;;;768.40;1766.40;;;;;;4959919;28;20484;-82
2021/07/29 00:14:52;;;;;;;25.98;13.60;;;768.40;1766.40;;;;;;4959301;28;20034;-78
2021/07/29 00:19:02;;;;;;;21.58;12.45;;;768.40;1740.80;;;;;;4959355;28;20035;-81
2021/07/29 00:20:06;;;;;;;19.55;11.63;;;768.50;1715.20;;;;;;4974491;28;20121;-81
2021/07/29 00:22:32;;;;;;;25.83;11.45;;;768.40;1740.80;;;;;;4967164;28;20485;-80
2021/07/29 00:24:57;;;;;;;22.80;10.95;;;768.40;1715.20;;;;;;4959779;28;20034;-80
2021/07/29 00:27:23;;;;;;;19.48;10.25;;;768.40;1715.20;;;;;;4976926;28;20105;-85
2021/07/29 00:29:56;;;;;;;16.70;9.77;;;768.40;1689.60;;;;;;4958440;28;20049;-80
2021/07/29 00:32:21;;;;;;;20.30;10.35;;;768.40;1715.20;;;;;;4959442;28;20066;-79
2021/07/29 00:34:47;;;;;;;26.45;11.25;;;768.50;1689.60;;;;;;4976726;28;20062;-79
2021/07/29 00:37:13;;;;;;;26.85;10.93;;;768.40;1715.20;;;;;;4959489;28;20491;-80
2021/07/29 00:39:41;;;;;;;17.58;9.73;;;768.40;1689.60;;;;;;4958860;28;20155;-80
2021/07/29 00:42:07;;;;;;;21.05;10.13;;;768.40;1715.20;;;;;;4958545;28;20114;-79
2021/07/29 00:44:34;;;;;;;24.50;10.00;;;768.30;1715.20;;;;;;4976633;28;20548;-81
2021/07/29 00:47:01;;;;;;;19.55;10.52;;;768.10;1715.20;;;;;;4958321;28;20027;-80
2021/07/29 00:49:27;;;;;;;24.95;10.60;;;768.20;1689.60;;;;;;4976142;28;20035;-78
2021/07/29 00:51:53;;;;;;;19.30;9.48;;;768.40;1689.60;;;;;;4973600;28;20052;-89
2021/07/29 00:54:19;;;;;;;17.95;9.48;;;768.40;1715.20;;;;;;4966255;28;20126;-85
2021/07/29 00:56:48;;;;;;;25.58;10.32;;;768.30;1715.20;;;;;;4976946;28;20468;-80
2021/07/29 00:59:14;;;;;;;22.73;9.90;;;768.30;1715.20;;;;;;4958810;28;20034;-90
2021/07/29 01:01:40;;;;;;;22.20;11.02;;;768.40;1689.60;;;;;;4957859;28;20480;-84
2021/07/29 01:04:05;;;;;;;18.42;10.20;;;768.40;1715.20;;;;;;4957806;28;20022;-81
2021/07/29 01:06:31;;;;;;;23.55;9.95;;;768.20;1715.20;;;;;;4957686;28;20493;-83
2021/07/29 01:09:10;;;;;;;23.50;10.20;;;768.20;1715.20;;;;;;4957255;28;20121;-80
2021/07/29 01:11:37;;;;;;;17.85;10.20;;;768.10;1740.80;;;;;;4954859;28;20401;-80
2021/07/29 01:14:03;;;;;;;28.00;10.82;;;768.10;1766.40;;;;;;4957265;28;20026;-79
2021/07/29 01:16:29;;;;;;;26.52;11.10;;;768.00;1766.40;;;;;;4975266;28;20027;-79
2021/07/29 01:18:57;;;;;;;23.55;10.18;;;743.30;1766.40;;;;;;4957135;28;20026;-79
2021/07/29 01:21:26;;;;;;;22.17;11.13;;;768.00;1792.00;;;;;;4958225;28;20473;-79
2021/07/29 01:23:52;;;;;;;27.95;11.27;;;768.10;1766.40;;;;;;4975777;28;20031;-81
2021/07/29 01:26:17;;;;;;;21.38;10.57;;;768.10;1766.40;;;;;;4958279;28;20500;-79
2021/07/29 01:28:43;;;;;;;20.15;9.40;;;768.20;1766.40;;;;;;4975446;28;20465;-80
2021/07/29 01:31:09;;;;;;;23.20;9.98;;;768.30;1740.80;;;;;;4958193;28;20027;-79
2021/07/29 01:33:36;;;;;;;26.83;10.35;;;768.10;1792.00;;;;;;4958586;28;20065;-89
2021/07/29 01:36:03;;;;;;;21.13;10.82;;;768.10;1766.40;;;;;;4958119;28;20035;-79
2021/07/29 01:38:28;;;;;;;26.27;11.20;;;743.30;1792.00;;;;;;4958071;28;20038;-86
2021/07/29 01:40:54;;;;;;;23.83;11.20;;;743.30;1817.60;;;;;;4958025;28;20026;-80
2021/07/29 01:43:20;;;;;;;24.70;13.23;;;743.30;1843.20;;;;;;4957982;28;20023;-82
2021/07/29 01:45:47;;;;;;;37.28;19.17;;;743.30;1843.20;;;;;;4957031;28;20039;-81
2021/07/29 01:48:12;;;;;;;76.60;39.03;;;743.20;1868.80;;;;;;4970331;28;20388;-80
2021/07/29 01:50:38;;;;;;;166.45;84.95;;;743.10;1868.80;;;;;;4978740;28;20038;-81
2021/07/29 01:53:04;;;;;;;191.23;96.38;;;743.00;1920.00;;;;;;4945053;28;20114;-81
2021/07/29 01:55:30;;;;;;;204.10;104.20;;;742.70;1971.20;;;;;;4957706;28;20126;-82
2021/07/29 01:57:55;;;;;;;227.32;119.07;;;742.80;1945.60;;;;;;4975379;28;20027;-85
2021/07/29 02:00:24;;;;;;;191.98;103.18;;;742.70;1945.60;;;;;;4958077;28;20085;-84
2021/07/29 02:02:50;;;;;;;136.60;71.22;;;742.70;1971.20;;;;;;4970273;28;20019;-81
2021/07/29 02:05:16;;;;;;;115.28;54.83;;;742.50;1971.20;;;;;;4957103;28;20496;-80
2021/07/29 02:07:41;;;;;;;90.95;45.30;;;742.40;1971.20;;;;;;4990497;28;20380;-91
2021/07/29 02:10:07;;;;;;;97.90;46.22;;;742.50;1971.20;;;;;;4976551;28;20038;-83
2021/07/29 02:12:33;;;;;;;86.07;43.35;;;742.50;1971.20;;;;;;4980157;28;20023;-88
2021/07/29 02:15:00;;;;;;;71.15;37.22;;;742.40;1971.20;;;;;;4958132;28;20023;-86
2021/07/29 02:17:25;;;;;;;63.13;33.20;;;717.70;1971.20;;;;;;4975343;28;20388;-82
2021/07/29 02:19:51;;;;;;;46.28;27.33;;;717.70;1945.60;;;;;;4978132;28;20025;-81
2021/07/29 02:22:18;;;;;;;48.53;27.60;;;717.70;1971.20;;;;;;4969189;28;20030;-82
2021/07/29 02:24:44;;;;;;;42.05;22.33;;;717.50;1971.20;;;;;;4960845;28;20030;-84
2021/07/29 02:27:09;;;;;;;34.42;19.85;;;717.60;1971.20;;;;;;4957967;28;20086;-82
2021/07/29 02:29:35;;;;;;;40.25;17.85;;;717.50;1971.20;;;;;;4957694;28;20089;-84
2021/07/29 02:32:01;;;;;;;30.25;16.67;;;717.50;1945.60;;;;;;4957872;28;20073;-83
2021/07/29 02:34:27;;;;;;;29.77;14.88;;;717.40;1971.20;;;;;;4957637;28;20057;-88
2021/07/29 02:36:52;;;;;;;26.17;15.65;;;717.40;1971.20;;;;;;4957678;28;20027;-88
2021/07/29 02:39:18;;;;;;;29.85;14.35;;;717.40;1971.20;;;;;;4957427;28;20054;-82
2021/07/29 02:41:44;;;;;;;29.65;14.07;;;717.30;1971.20;;;;;;4957242;28;20086;-81
2021/07/29 02:44:10;;;;;;;36.80;14.90;;;717.30;1971.20;;;;;;4957099;28;20037;-82
2021/07/29 02:46:35;;;;;;;25.05;14.93;;;717.30;1971.20;;;;;;4957021;28;20384;-83
2021/07/29 02:49:01;;;;;;;27.80;14.98;;;717.20;1996.80;;;;;;4957156;28;20485;-82
2021/07/29 02:51:27;;;;;;;34.53;14.95;;;717.10;1996.80;;;;;;4966318;28;20081;-82
2021/07/29 02:53:52;;;;;;;25.02;12.93;;;717.10;1996.80;;;;;;4956801;28;20027;-82
2021/07/29 02:56:18;;;;;;;19.63;14.05;;;717.20;1996.80;;;;;;4967370;28;20031;-85
2021/07/29 02:58:47;;;;;;;22.50;14.43;;;716.80;2048.00;;;;;;4957266;28;20069;-81
2021/07/29 03:01:14;;;;;;;28.38;13.60;;;691.80;2073.60;;;;;;4957462;28;20027;-87
2021/07/29 03:03:41;;;;;;;24.35;14.02;;;691.80;2073.60;;;;;;4957202;28;20055;-82
2021/07/29 03:06:07;;;;;;;19.15;13.15;;;692.10;2048.00;;;;;;4956515;28;20035;-82
2021/07/29 03:08:33;;;;;;;22.83;13.27;;;692.10;2048.00;;;;;;4965225;28;20023;-82
2021/07/29 03:10:58;;;;;;;24.45;12.80;;;716.80;2073.60;;;;;;4956958;28;20035;-82
2021/07/29 03:13:26;;;;;;;21.70;13.07;;;716.90;2048.00;;;;;;4956865;28;20027;-82
2021/07/29 03:15:52;;;;;;;23.13;12.13;;;716.90;2022.40;;;;;;4956948;28;20034;-81
2021/07/29 03:18:17;;;;;;;22.10;12.20;;;717.00;2022.40;;;;;;4974202;28;20102;-85
2021/07/29 03:20:43;;;;;;;21.80;11.18;;;717.10;1996.80;;;;;;4961147;28;20026;-81
2021/07/29 03:23:09;;;;;;;22.27;11.93;;;717.10;1996.80;;;;;;4977917;28;20027;-81
2021/07/29 03:25:35;;;;;;;19.08;10.57;;;717.10;1971.20;;;;;;4960600;28;20042;-82
2021/07/29 03:28:02;;;;;;;19.55;10.63;;;717.00;1971.20;;;;;;4960618;28;20023;-82
2021/07/29 03:30:28;;;;;;;21.60;11.13;;;717.00;1945.60;;;;;;4960523;28;20198;-85
2021/07/29 03:32:53;;;;;;;20.88;10.93;;;716.90;1945.60;;;;;;4978055;28;20517;-86
2021/07/29 03:35:19;;;;;;;25.08;11.45;;;716.90;1971.20;;;;;;4960940;28;20058;-83
2021/07/29 03:37:45;;;;;;;31.75;12.48;;;716.90;1971.20;;;;;;4978257;28;20489;-82
2021/07/29 03:40:11;;;;;;;25.38;10.38;;;716.80;1971.20;;;;;;4967023;28;20030;-83
2021/07/29 03:42:37;;;;;;;20.13;10.15;;;716.80;1971.20;;;;;;4980065;28;20401;-81
2021/07/29 03:45:03;;;;;;;19.63;11.57;;;692.10;1996.80;;;;;;4979870;28;20117;-80
2021/07/29 03:47:29;;;;;;;24.77;11.57;;;716.80;1996.80;;;;;;4969026;28;20440;-81
2021/07/29 03:49:55;;;;;;;24.00;11.55;;;716.80;1996.80;;;;;;4959710;28;20039;-80
2021/07/29 03:52:21;;;;;;;18.70;10.82;;;716.80;1996.80;;;;;;4979262;28;20579;-81
2021/07/29 03:54:49;;;;;;;18.42;10.77;;;692.10;1996.80;;;;;;4959784;28;20027;-82
2021/07/29 03:57:15;;;;;;;19.23;11.85;;;691.70;2048.00;;;;;;4977215;28;20048;-82
2021/07/29 03:59:41;;;;;;;24.95;12.43;;;691.60;2073.60;;;;;;4957432;28;20487;-83
2021/07/29 04:02:09;;;;;;;25.75;11.75;;;691.50;2073.60;;;;;;4949664;28;20023;-81
2021/07/29 04:04:38;;;;;;;16.95;10.48;;;691.40;2048.00;;;;;;4959616;28;20388;-80
2021/07/29 04:07:04;;;;;;;26.67;11.50;;;691.90;2022.40;;;;;;4959725;28;20031;-80
2021/07/29 04:09:29;;;;;;;20.35;10.95;;;692.00;1996.80;;;;;;4959511;28;20023;-80
2021/07/29 04:11:55;;;;;;;18.55;10.40;;;692.00;2022.40;;;;;;4959957;28;20041;-80
2021/07/29 04:14:21;;;;;;;19.80;10.50;;;691.90;2022.40;;;;;;4976785;28;20031;-84
2021/07/29 04:16:47;;;;;;;21.02;10.90;;;692.10;1996.80;;;;;;4959431;28;20033;-82
2021/07/29 04:19:12;;;;;;;24.27;11.90;;;692.10;1996.80;;;;;;4959277;28;20034;-81
2021/07/29 04:21:38;;;;;;;19.17;11.68;;;692.10;1996.80;;;;;;4961702;28;20440;-81
2021/07/29 04:24:04;;;;;;;17.58;11.45;;;692.10;2022.40;;;;;;4959460;28;20038;-80
2021/07/29 04:26:30;;;;;;;27.05;13.63;;;692.00;2048.00;;;;;;4976443;28;20027;-82
2021/07/29 04:28:55;;;;;;;27.52;15.35;;;691.70;2124.80;;;;;;4959117;28;20042;-82
2021/07/29 04:31:21;;;;;;;30.65;17.35;;;691.40;2176.00;;;;;;4976615;28;20495;-87
2021/07/29 04:33:47;;;;;;;28.00;16.73;;;691.70;2124.80;;;;;;4958321;28;20027;-81
2021/07/29 04:36:12;;;;;;;30.75;16.70;;;691.80;2124.80;;;;;;4958878;28;20033;-81
2021/07/29 04:38:38;;;;;;;29.63;15.98;;;691.70;2099.20;;;;;;4958918;28;20031;-81
2021/07/29 04:41:05;;;;;;;22.05;13.95;;;691.60;2176.00;;;;;;4958883;28;20545;-81
2021/07/29 04:43:31;;;;;;;27.67;15.73;;;691.60;2124.80;;;;;;4958894;28;20022;-81
2021/07/29 04:46:01;;;;;;;24.70;13.38;;;691.70;2227.20;;;;;;4958774;28;20425;-80
2021/07/29 04:48:26;;;;;;;27.25;13.77;;;691.70;2201.60;;;;;;4958935;28;20030;-83
2021/07/29 04:50:52;;;;;;;25.67;13.57;;;691.70;2150.40;;;;;;4958481;28;20043;-83
2021/07/29 04:53:18;;;;;;;22.00;13.70;;;691.70;2150.40;;;;;;4958977;28;20499;-82
2021/07/29 04:55:43;;;;;;;29.10;15.40;;;691.70;2176.00;;;;;;4959355;28;20031;-83
2021/07/29 04:58:09;;;;;;;26.55;16.08;;;691.70;2201.60;;;;;;4958748;28;20381;-84
2021/07/29 05:00:35;;;;;;;35.38;20.45;;;691.70;2201.60;;;;;;4958779;28;20034;-82
2021/07/29 05:03:01;;;;;;;54.55;31.90;;;691.70;2176.00;;;;;;4959197;28;20030;-87
2021/07/29 05:05:26;;;;;;;89.93;48.90;;;691.70;2201.60;;;;;;4959118;28;20118;-86
2021/07/29 05:07:52;;;;;;;101.25;55.72;;;691.70;2201.60;;;;;;4958908;28;20029;-85
2021/07/29 05:10:18;;;;;;;115.20;63.80;;;691.70;2176.00;;;;;;4956803;28;20066;-85
2021/07/29 05:12:44;;;;;;;111.30;57.67;;;691.80;2150.40;;;;;;4958986;28;20015;-83
2021/07/29 05:15:11;;;;;;;107.43;60.35;;;691.80;2176.00;;;;;;4958839;28;20027;-83
2021/07/29 05:17:37;;;;;;;93.75;53.63;;;691.80;2150.40;;;;;;4958475;28;20034;-85
2021/07/29 05:20:03;;;;;;;97.75;51.90;;;691.80;2150.40;;;;;;4958073;28;20138;-85
2021/07/29 05:22:29;;;;;;;85.25;45.67;;;691.90;2124.80;;;;;;4960667;28;20027;-77
2021/07/29 05:24:54;;;;;;;93.80;45.45;;;691.70;2124.80;;;;;;4972875;28;20436;-79
2021/07/29 05:27:20;;;;;;;78.57;44.08;;;691.80;2124.80;;;;;;4975309;28;20102;-80
2021/07/29 05:29:46;;;;;;;80.57;41.67;;;691.90;2124.80;;;;;;4958049;28;20055;-78
2021/07/29 05:32:11;;;;;;;75.53;40.67;;;691.90;2150.40;;;;;;4957991;28;20082;-82
2021/07/29 05:34:37;;;;;;;68.82;37.67;;;691.90;2124.80;;;;;;4958081;28;20536;-81
2021/07/29 05:37:04;;;;;;;64.78;32.70;;;691.80;2150.40;;;;;;4975184;28;20082;-79
2021/07/29 05:39:33;;;;;;;57.58;31.42;;;691.80;2099.20;;;;;;4957649;28;20042;-80
2021/07/29 05:41:59;;;;;;;49.63;25.25;;;691.80;2124.80;;;;;;4957503;28;20468;-80
2021/07/29 05:44:24;;;;;;;32.40;20.02;;;691.50;2176.00;;;;;;4957876;28;20034;-79
2021/07/29 05:46:50;;;;;;;24.58;15.15;;;691.60;2099.20;;;;;;4957968;28;20027;-83
2021/07/29 05:49:16;;;;;;;25.00;15.25;;;691.50;2073.60;;;;;;4959307;28;20155;-82
2021/07/29 05:51:41;;;;;;;26.17;11.98;;;691.40;2073.60;;;;;;4984194;28;20062;-84
2021/07/29 05:54:07;;;;;;;16.92;10.20;;;691.40;2073.60;;;;;;4958507;28;20400;-84
2021/07/29 05:56:33;;;;;;;13.07;10.05;;;691.60;2048.00;;;;;;4958289;28;20027;-83
2021/07/29 05:58:58;;;;;;;18.15;9.63;;;691.70;2073.60;;;;;;4958070;28;20022;-82
2021/07/29 06:01:24;;;;;;;15.13;9.05;;;691.70;2022.40;;;;;;4958085;28;20027;-82
2021/07/29 06:03:50;;;;;;;14.85;9.77;;;691.60;2048.00;;;;;;4957704;28;20023;-81
2021/07/29 06:06:16;;;;;;;27.20;21.17;;;691.60;2022.40;;;;;;4958249;28;20121;-84
2021/07/29 06:08:43;;;;;;;14.20;9.05;;;691.80;2022.40;;;;;;4957905;28;20109;-82
2021/07/29 06:11:09;;;;;;;17.27;9.27;;;691.90;2048.00;;;;;;4957931;28;20113;-82
2021/07/29 06:13:34;;;;;;;16.02;8.50;;;691.90;2048.00;;;;;;4957822;28;20473;-83
2021/07/29 06:16:02;;;;;;;19.35;7.93;;;691.90;2022.40;;;;;;4957809;28;20066;-82
2021/07/29 06:18:28;;;;;;;15.52;8.40;;;692.00;1996.80;;;;;;4984362;28;20054;-82
2021/07/29 06:20:56;;;;;;;18.55;7.80;;;692.00;2022.40;;;;;;4988226;28;20342;-83
2021/07/29 06:23:22;;;;;;;15.60;8.30;;;692.00;1996.80;;;;;;4957494;28;20066;-83
2021/07/29 06:25:48;;;;;;;13.70;7.53;;;692.10;2022.40;;;;;;4957796;28;20057;-81
2021/07/29 06:28:15;;;;;;;15.20;8.15;;;716.80;2048.00;;;;;;4957572;28;20030;-81
2021/07/29 06:30:44;;;;;;;16.80;7.88;;;716.80;2022.40;;;;;;4970021;28;20117;-81
2021/07/29 06:33:09;;;;;;;18.50;8.57;;;716.80;2048.00;;;;;;4967867;28;20551;-83
2021/07/29 06:35:35;;;;;;;20.40;8.68;;;717.00;2022.40;;;;;;4966347;28;20114;-81
2021/07/29 06:38:01;;;;;;;14.18;8.23;;;716.90;2022.40;;;;;;4956938;28;20172;-82
2021/07/29 06:40:27;;;;;;;20.95;8.32;;;717.10;1971.20;;;;;;4974669;28;20033;-81
2021/07/29 06:42:52;;;;;;;17.25;7.95;;;717.20;1945.60;;;;;;4957126;28;20062;-80
2021/07/29 06:45:18;;;;;;;13.90;6.95;;;717.30;1996.80;;;;;;4958864;28;20031;-83
2021/07/29 06:47:44;;;;;;;14.40;7.38;;;717.40;1996.80;;;;;;4937820;29;20049;-82
2021/07/29 06:50:10;;;;;;;12.82;7.18;;;717.40;1945.60;;;;;;4954740;28;20043;-88
2021/07/29 06:52:36;;;;;;;12.13;6.68;;;717.50;1945.60;;;;;;4972732;28;20031;-80
2021/07/29 06:55:05;;;;;;;12.60;7.38;;;717.50;1920.00;;;;;;4973052;28;20027;-81
2021/07/29 06:57:30;;;;;;;15.40;7.82;;;717.70;1920.00;;;;;;4972106;28;20035;-82
2021/07/29 06:59:56;;;;;;;17.10;6.75;;;717.70;1945.60;;;;;;4974433;28;20366;-81
2021/07/29 07:02:22;;;;;;;10.40;7.15;;;717.70;1920.00;;;;;;4973016;28;20027;-81
2021/07/29 07:04:48;;;;;;;13.55;8.25;;;717.70;1920.00;;;;;;4973070;28;20777;-83
2021/07/29 07:07:17;;;;;;;15.18;8.27;;;717.70;1920.00;;;;;;4974261;28;20429;-81
2021/07/29 07:09:44;;;;;;;15.52;7.18;;;717.70;1920.00;;;;;;4972924;28;20125;-82
2021/07/29 07:12:11;;;;;;;11.32;7.75;;;742.40;1945.60;;;;;;4972915;28;20049;-81
2021/07/29 07:14:36;;;;;;;15.60;8.43;;;742.50;1945.60;;;;;;4973913;28;20102;-79
2021/07/29 07:17:06;;;;;;;15.73;8.07;;;742.60;1945.60;;;;;;4973993;28;20122;-80
2021/07/29 07:19:33;;;;;;;12.82;7.53;;;742.70;1945.60;;;;;;4973738;28;20049;-80
2021/07/29 07:22:00;;;;;;;17.80;7.57;;;742.70;1971.20;;;;;;4981150;28;20027;-81
2021/07/29 07:24:26;;;;;;;12.75;7.22;;;742.80;1920.00;;;;;;4966311;28;20023;-82
2021/07/29 07:26:52;;;;;;;14.68;7.47;;;743.00;1894.40;;;;;;4973395;28;20031;-82
2021/07/29 07:29:17;;;;;;;10.70;6.47;;;742.90;1920.00;;;;;;4973720;28;20027;-82
2021/07/29 07:31:43;;;;;;;8.73;6.93;;;743.00;1894.40;;;;;;4974044;28;20031;-80
2021/07/29 07:34:09;;;;;;;19.00;8.45;;;743.10;1894.40;;;;;;4973930;28;20030;-81
2021/07/29 07:36:34;;;;;;;15.52;7.82;;;743.10;1868.80;;;;;;4972734;28;20496;-78
2021/07/29 07:39:00;;;;;;;16.48;7.38;;;743.10;1894.40;;;;;;4973772;28;20026;-81
2021/07/29 07:41:26;;;;;;;11.55;7.10;;;743.10;1894.40;;;;;;4973767;28;20109;-82
2021/07/29 07:43:52;;;;;;;15.52;9.10;;;743.30;1894.40;;;;;;4973815;28;20023;-84
2021/07/29 07:46:17;;;;;;;11.30;7.90;;;743.20;1894.40;;;;;;4972476;28;20058;-82
2021/07/29 07:48:43;;;;;;;11.80;7.65;;;743.10;1868.80;;;;;;4973802;28;20026;-83
2021/07/29 07:51:09;;;;;;;11.02;7.35;;;743.10;1894.40;;;;;;4965552;28;20073;-83
2021/07/29 07:53:34;;;;;;;15.05;8.30;;;743.30;1843.20;;;;;;4956772;28;20027;-81
2021/07/29 07:56:05;;;;;;;18.27;8.27;;;743.30;1868.80;;;;;;4956520;28;20019;-82
2021/07/29 07:58:34;;;;;;;15.05;8.55;;;768.10;1843.20;;;;;;4956784;28;20027;-86
2021/07/29 08:01:03;;;;;;;9.77;7.57;;;768.20;1817.60;;;;;;4958834;28;20385;-88
2021/07/29 08:03:29;;;;;;;14.82;7.75;;;768.30;1817.60;;;;;;4962570;28;20054;-85
2021/07/29 08:05:55;;;;;;;16.63;7.63;;;768.30;1843.20;;;;;;4956907;28;20517;-83
2021/07/29 08:08:20;;;;;;;10.60;6.90;;;768.40;1817.60;;;;;;4974328;28;20465;-84
2021/07/29 08:10:50;;;;;;;13.85;7.38;;;768.30;1843.20;;;;;;4959458;28;20050;-81
2021/07/29 08:13:15;;;;;;;13.23;7.10;;;768.30;1868.80;;;;;;4959628;28;20041;-82
2021/07/29 08:15:41;;;;;;;31.38;18.42;;;768.40;1894.40;;;;;;4960045;28;20709;-85
2021/07/29 08:18:07;;;;;;;17.85;9.27;;;768.40;1894.40;;;;;;4960269;28;20089;-81
2021/07/29 08:20:33;;;;;;;13.80;8.23;;;768.40;1868.80;;;;;;4959392;28;20097;-83
2021/07/29 08:22:58;;;;;;;12.95;7.70;;;768.60;1894.40;;;;;;4959311;28;20499;-80
2021/07/29 08:25:24;;;;;;;45.97;26.50;;;768.60;1843.20;;;;;;4976908;28;20105;-82
2021/07/29 08:27:52;;;;;;;27.55;16.15;;;768.80;1817.60;;;;;;4958940;28;20045;-79
2021/07/29 08:30:20;;;;;;;9.45;7.35;;;768.80;1817.60;;;;;;4976611;28;20039;-80
2021/07/29 08:32:46;;;;;;;15.73;7.32;;;794.00;1843.20;;;;;;4958887;28;20015;-81
2021/07/29 08:35:12;;;;;;;13.35;6.72;;;768.80;1817.60;;;;;;4959181;28;20033;-80
2021/07/29 08:37:44;;;;;;;15.25;6.65;;;768.90;1817.60;;;;;;4959132;28;20105;-80
2021/07/29 08:40:11;;;;;;;14.90;9.82;;;793.60;1843.20;;;;;;4971131;28;20121;-81
2021/07/29 08:42:37;;;;;;;13.30;7.40;;;793.70;1817.60;;;;;;4976543;28;20058;-80
2021/07/29 08:45:03;;;;;;;19.63;11.43;;;793.70;1817.60;;;;;;4965028;28;20547;-81
2021/07/29 08:47:32;;;;;;;38.95;24.52;;;793.80;1792.00;;;;;;4957168;29;20485;-82
2021/07/29 08:50:06;;;;;;;32.63;21.73;;;793.80;1817.60;;;;;;4974058;28;20122;-82
2021/07/29 08:52:32;;;;;;;38.97;22.20;;;793.80;1817.60;;;;;;4973615;28;20039;-81
2021/07/29 08:54:59;;;;;;;54.50;34.05;;;793.80;1792.00;;;;;;4975851;28;20083;-79
2021/07/29 08:57:32;;;;;;;59.55;39.88;;;793.80;1817.60;;;;;;4975665;28;20019;-79
2021/07/29 09:00:09;;;;;;;40.03;26.88;;;794.00;1843.20;;;;;;4975701;28;20031;-77
2021/07/29 09:02:35;;;;;;;44.45;28.00;;;794.10;1817.60;;;;;;4974519;28;20473;-78
2021/07/29 09:05:09;;;;;;;82.25;48.85;;;794.20;1817.60;;;;;;4958813;28;20034;-81
2021/07/29 09:07:35;;;;;;;61.88;38.15;;;794.20;1817.60;;;;;;4976073;28;20021;-81
2021/07/29 09:10:03;;;;;;;66.90;40.10;;;794.20;1843.20;;;;;;4958854;28;20491;-81
2021/07/29 09:12:30;;;;;;;58.70;34.65;;;794.20;1817.60;;;;;;4959476;28;20031;-82
2021/07/29 09:14:56;;;;;;;45.75;29.80;;;794.50;1817.60;;;;;;4961735;28;20043;-81
2021/07/29 09:17:23;;;;;;;70.28;37.60;;;794.20;1817.60;;;;;;4957631;28;20396;-80
2021/07/29 09:19:50;;;;;;;71.63;39.47;;;794.20;1843.20;;;;;;4958028;28;20045;-80
2021/07/29 09:22:23;;;;;;;65.00;37.45;;;794.20;1843.20;;;;;;4961822;28;20052;-79
2021/07/29 09:25:09;;;;;;;42.97;25.45;;;794.20;1843.20;;;;;;4974982;28;20027;-79
2021/07/29 09:27:37;;;;;;;57.60;29.85;;;794.20;1843.20;;;;;;4952652;28;20038;-77
2021/07/29 09:30:26;;;;;;;79.72;45.85;;;794.40;1792.00;;;;;;4958183;28;20110;-80
2021/07/29 09:33:05;;;;;;;100.90;55.50;;;794.20;1817.60;;;;;;4975389;28;20384;-78
2021/07/29 09:35:52;;;;;;;89.47;48.13;;;794.20;1792.00;;;;;;4958092;28;20030;-79
2021/07/29 09:38:25;;;;;;;76.30;42.85;;;794.10;1792.00;;;;;;4958264;28;20540;-79
2021/07/29 09:41:00;;;;;;;72.20;36.58;;;794.20;1817.60;;;;;;4974158;28;20023;-79
2021/07/29 09:43:29;;;;;;;46.60;26.98;;;794.20;1868.80;;;;;;4973962;28;20512;-76
2021/07/29 09:45:57;;;;;;;54.10;28.70;;;794.10;1817.60;;;;;;4969380;28;20023;-84
2021/07/29 09:48:23;;;;;;;42.63;22.58;;;794.10;1817.60;;;;;;4956475;28;20497;-76
2021/07/29 09:50:55;;;;;;;65.25;34.75;;;794.20;1792.00;;;;;;4976111;28;20042;-77
2021/07/29 09:53:23;;;;;;;50.03;26.17;;;819.20;1766.40;;;;;;4974110;28;20038;-76
2021/07/29 09:55:49;;;;;;;52.13;29.65;;;794.30;1740.80;;;;;;4973631;28;20035;-76
2021/07/29 09:58:15;;;;;;;65.57;34.42;;;819.20;1715.20;;;;;;4973734;28;20021;-78
2021/07/29 10:00:42;;;;;;;48.28;27.23;;;819.40;1740.80;;;;;;4956072;28;20465;-78
2021/07/29 10:03:09;;;;;;;48.70;26.23;;;819.80;1740.80;;;;;;4973334;28;20050;-79
2021/07/29 10:05:58;;;;;;;39.55;22.77;;;820.00;1664.00;;;;;;4955869;28;20074;-78
2021/07/29 10:08:50;;;;;;;21.27;12.10;;;820.10;1689.60;;;;;;4955678;28;20445;-78
2021/07/29 10:11:18;;;;;;;28.65;13.48;;;845.00;1638.40;;;;;;4955517;28;20061;-80
2021/07/29 10:13:44;;;;;;;26.00;15.40;;;845.20;1664.00;;;;;;4955816;28;20041;-79
2021/07/29 10:16:15;;;;;;;18.33;12.52;;;845.20;1638.40;;;;;;4955593;28;20025;-80
2021/07/29 10:19:01;;;;;;;21.45;11.32;;;845.20;1612.80;;;;;;4971174;28;20025;-80
2021/07/29 10:21:33;;;;;;;23.30;11.65;;;845.30;1612.80;;;;;;4972966;28;20037;-79
2021/07/29 10:24:00;;;;;;;65.63;34.75;;;845.70;1638.40;;;;;;4970487;28;20042;-78
2021/07/29 10:26:27;;;;;;;63.85;34.33;;;845.70;1587.20;;;;;;4955383;28;20104;-80
2021/07/29 10:29:13;;;;;;;44.47;23.60;;;870.50;1587.20;;;;;;4955349;28;20037;-76
2021/07/29 10:31:59;;;;;;;48.33;25.52;;;870.50;1561.60;;;;;;4972349;28;20548;-77
2021/07/29 10:34:34;;;;;;;38.60;19.63;;;845.70;1484.80;;;;;;4971629;28;20089;-80
2021/07/29 10:37:06;;;;;;;;;;;870.40;1536.00;;;;;;4971115;28;20019;-79
2021/07/29 10:39:56;;;;;;;19.17;10.52;;;845.70;1536.00;;;;;;4973748;28;19949;-82
2021/07/29 10:42:29;;;;;;;21.33;12.25;;;870.50;1510.40;;;;;;4970578;28;20034;-79
2021/07/29 10:44:55;;;;;;;37.72;21.30;;;870.40;1484.80;;;;;;4973011;28;20533;-80
2021/07/29 10:47:38;;;;;;;19.50;10.25;;;845.70;1484.80;;;;;;4956569;28;20034;-83
2021/07/29 10:50:09;;;;;;;28.27;16.20;;;870.40;1510.40;;;;;;4970053;28;20114;-82
2021/07/29 10:52:35;;;;;;;36.83;18.08;;;870.40;1484.80;;;;;;4975109;28;20058;-81
2021/07/29 10:55:02;;;;;;;39.85;19.98;;;870.50;1536.00;;;;;;4973676;28;20026;-85
2021/07/29 10:57:28;;;;;;;33.58;17.92;;;870.80;1459.20;;;;;;4956613;28;20019;-83
2021/07/29 10:59:54;;;;;;;15.88;9.65;;;870.80;1459.20;;;;;;4973548;28;20034;-79
2021/07/29 11:02:47;;;;;;;15.63;8.18;;;870.90;1356.80;;;;;;4956898;28;20053;-90
2021/07/29 11:05:19;;;;;;;33.28;15.82;;;871.10;1356.80;;;;;;4955062;28;20030;-76
2021/07/29 11:07:45;;;;;;;27.65;17.08;;;871.30;1356.80;;;;;;4974369;28;20396;-87
2021/07/29 11:10:13;;;;;;;25.52;9.93;;;871.30;1433.60;;;;;;4974263;28;20039;-80
2021/07/29 11:12:40;;;;;;;12.90;6.65;;;871.30;1408.00;;;;;;4974331;28;20030;-86
2021/07/29 11:15:08;;;;;;;13.07;7.22;;;871.10;1382.40;;;;;;4956886;28;20117;-80
2021/07/29 11:17:34;;;;;;;12.07;8.32;;;871.30;1356.80;;;;;;4973945;28;20019;-82
2021/07/29 11:19:59;;;;;;;17.42;9.30;;;871.30;1356.80;;;;;;4956443;28;20045;-77
2021/07/29 11:22:25;;;;;;;15.50;7.00;;;871.30;1356.80;;;;;;4990508;28;20035;-79
2021/07/29 11:24:51;;;;;;;11.02;6.05;;;871.30;1408.00;;;;;;4987297;28;20031;-78
2021/07/29 11:27:30;;;;;;;11.35;6.82;;;871.30;1459.20;;;;;;4974211;28;20027;-79
2021/07/29 11:30:00;;;;;;;10.18;7.30;;;871.30;1433.60;;;;;;4955834;28;20035;-78
2021/07/29 11:32:44;;;;;;;15.70;8.73;;;896.10;1331.20;;;;;;4956784;28;20109;-79
2021/07/29 11:35:26;;;;;;;22.80;12.15;;;896.20;1254.40;;;;;;4956904;28;20031;-90
2021/07/29 11:37:52;;;;;;;25.23;13.25;;;896.30;1331.20;;;;;;4937836;29;20023;-86
2021/07/29 11:40:25;;;;;;;21.45;13.18;;;921.70;1305.60;;;;;;4937631;28;20039;-89
2021/07/29 11:42:52;;;;;;;22.45;11.93;;;922.30;1331.20;;;;;;4953687;28;20035;-85
2021/07/29 11:45:34;;;;;;;19.38;10.70;;;922.40;1254.40;;;;;;4945343;28;20168;-84
2021/07/29 11:48:01;;;;;;;9.18;6.30;;;922.40;1280.00;;;;;;4949963;29;20031;-88
2021/07/29 11:50:32;;;;;;;10.25;5.80;;;947.40;1254.40;;;;;;4941736;28;20069;-92
2021/07/29 11:52:58;;;;;;;15.00;6.38;;;947.60;1254.40;;;;;;4940383;29;20036;-86
2021/07/29 11:55:24;;;;;;;11.27;6.35;;;947.70;1177.60;;;;;;4957465;29;20027;-83
2021/07/29 11:57:50;;;;;;;13.35;5.22;;;947.60;1228.80;;;;;;4940717;29;20030;-89
2021/07/29 12:00:27;;;;;;;11.85;6.85;;;948.00;1203.20;;;;;;4958161;29;20023;-89
2021/07/29 12:02:53;;;;;;;16.58;8.95;;;948.00;1203.20;;;;;;4939316;29;20425;-86